sensor_id;sensor_type;location;lat;lon;timestamp;pressure;altitude;pressure_sealevel;temperature;humidity
35778;BME280;21899;42.662;23.316;2023-04-19T00:01:18;94011.13;;;9.97;100.00
35778;BME280;21899;42.662;23.316;2023-04-19T00:03:44;94001.19;;;9.97;100.00
35778;BME280;21899;42.662;23.316;2023-04-19T00:06:10;94001.56;;;10.06;100.00
35778;BME280;21899;42.662;23.316;2023-04-19T00:08:39;93991.69;;;9.93;100.00
35778;BME280;21899;42.662;23.316;2023-04-19T00:11:05;94004.66;;;9.94;100.00
35778;BME280;21899;42.662;23.316;2023-04-19T00:13:30;94001.56;;;9.99;100.00
35778;BME280;21899;42.662;23.316;2023-04-19T00:15:55;94003.50;;;9.95;100.00
35778;BME280;21899;42.662;23.316;2023-04-19T00:18:21;93988.66;;;9.84;100.00
35778;BME280;21899;42.662;23.316;2023-04-19T00:20:46;93997.03;;;9.86;100.00
35778;BME280;21899;42.662;23.316;2023-04-19T00:23:13;93991.72;;;9.82;100.00
35778;BME280;21899;42.662;23.316;2023-04-19T00:25:38;93996.28;;;9.85;100.00
35778;BME280;21899;42.662;23.316;2023-04-19T00:28:03;93996.66;;;9.87;100.00
35778;BME280;21899;42.662;23.316;2023-04-19T00:30:29;93995.53;;;9.85;100.00
35778;BME280;21899;42.662;23.316;2023-04-19T00:32:54;93989.41;;;9.84;100.00
35778;BME280;21899;42.662;23.316;2023-04-19T00:35:20;93987.06;;;9.93;100.00
35778;BME280;21899;42.662;23.316;2023-04-19T00:37:45;93985.56;;;9.96;100.00
35778;BME280;21899;42.662;23.316;2023-04-19T00:40:11;93991.59;;;10.03;100.00
35778;BME280;21899;42.662;23.316;2023-04-19T00:42:36;93986.63;;;10.05;100.00
35778;BME280;21899;42.662;23.316;2023-04-19T00:45:01;93970.31;;;9.89;100.00
35778;BME280;21899;42.662;23.316;2023-04-19T00:47:27;93977.13;;;10.01;100.00
35778;BME280;21899;42.662;23.316;2023-04-19T00:49:52;93982.06;;;10.13;100.00
35778;BME280;21899;42.662;23.316;2023-04-19T00:52:18;93975.94;;;10.12;100.00
35778;BME280;21899;42.662;23.316;2023-04-19T00:54:44;93985.13;;;10.11;100.00
35778;BME280;21899;42.662;23.316;2023-04-19T00:57:09;93966.06;;;9.95;100.00
35778;BME280;21899;42.662;23.316;2023-04-19T00:59:35;93968.75;;;9.92;100.00
35778;BME280;21899;42.662;23.316;2023-04-19T01:02:00;93968.03;;;9.88;100.00
35778;BME280;21899;42.662;23.316;2023-04-19T01:04:26;93976.38;;;9.93;100.00
35778;BME280;21899;42.662;23.316;2023-04-19T01:06:52;93975.97;;;9.98;100.00
35778;BME280;21899;42.662;23.316;2023-04-19T01:09:17;93974.84;;;9.99;100.00
35778;BME280;21899;42.662;23.316;2023-04-19T01:11:43;93969.94;;;9.87;100.00
35778;BME280;21899;42.662;23.316;2023-04-19T01:14:08;93959.63;;;9.89;100.00
35778;BME280;21899;42.662;23.316;2023-04-19T01:16:34;93964.94;;;9.96;100.00
35778;BME280;21899;42.662;23.316;2023-04-19T01:19:00;93962.59;;;9.98;100.00
35778;BME280;21899;42.662;23.316;2023-04-19T01:21:25;93971.03;;;9.93;100.00
35778;BME280;21899;42.662;23.316;2023-04-19T01:23:53;93972.22;;;9.82;100.00
35778;BME280;21899;42.662;23.316;2023-04-19T01:26:19;93967.34;;;9.66;100.00
35778;BME280;21899;42.662;23.316;2023-04-19T01:28:44;93971.94;;;9.59;100.00
35778;BME280;21899;42.662;23.316;2023-04-19T01:31:10;93974.28;;;9.53;100.00
35778;BME280;21899;42.662;23.316;2023-04-19T01:33:35;93972.78;;;9.45;100.00
35778;BME280;21899;42.662;23.316;2023-04-19T01:36:01;93974.28;;;9.39;100.00
35778;BME280;21899;42.662;23.316;2023-04-19T01:38:26;93963.66;;;9.32;100.00
35778;BME280;21899;42.662;23.316;2023-04-19T01:40:51;93963.66;;;9.25;100.00
35778;BME280;21899;42.662;23.316;2023-04-19T01:43:17;93962.09;;;9.35;100.00
35778;BME280;21899;42.662;23.316;2023-04-19T01:45:43;93964.75;;;9.45;100.00
35778;BME280;21899;42.662;23.316;2023-04-19T01:48:08;93964.31;;;9.54;100.00
35778;BME280;21899;42.662;23.316;2023-04-19T01:50:34;93961.72;;;9.40;100.00
35778;BME280;21899;42.662;23.316;2023-04-19T01:52:59;93968.22;;;9.35;100.00
35778;BME280;21899;42.662;23.316;2023-04-19T01:55:25;93955.25;;;9.30;100.00
35778;BME280;21899;42.662;23.316;2023-04-19T01:57:51;93955.66;;;9.18;100.00
35778;BME280;21899;42.662;23.316;2023-04-19T02:00:19;93957.94;;;9.12;100.00
35778;BME280;21899;42.662;23.316;2023-04-19T02:02:45;93961.03;;;9.04;100.00
35778;BME280;21899;42.662;23.316;2023-04-19T02:05:10;93951.53;;;8.92;100.00
35778;BME280;21899;42.662;23.316;2023-04-19T02:07:36;93958.38;;;8.90;100.00
35778;BME280;21899;42.662;23.316;2023-04-19T02:10:02;93965.63;;;8.96;100.00
35778;BME280;21899;42.662;23.316;2023-04-19T02:12:29;93965.25;;;8.87;100.00
35778;BME280;21899;42.662;23.316;2023-04-19T02:14:55;93962.94;;;8.86;100.00
35778;BME280;21899;42.662;23.316;2023-04-19T02:17:24;93947.69;;;8.79;100.00
35778;BME280;21899;42.662;23.316;2023-04-19T02:19:50;93966.38;;;8.86;100.00
35778;BME280;21899;42.662;23.316;2023-04-19T02:22:15;93958.75;;;8.92;100.00
35778;BME280;21899;42.662;23.316;2023-04-19T02:24:41;93963.72;;;8.97;100.00
35778;BME280;21899;42.662;23.316;2023-04-19T02:27:06;93958.38;;;9.04;100.00
35778;BME280;21899;42.662;23.316;2023-04-19T02:29:32;93960.63;;;9.09;100.00
35778;BME280;21899;42.662;23.316;2023-04-19T02:31:58;93945.78;;;9.01;100.00
35778;BME280;21899;42.662;23.316;2023-04-19T02:34:23;93950.72;;;9.13;100.00
35778;BME280;21899;42.662;23.316;2023-04-19T02:36:48;93940.03;;;9.13;100.00
35778;BME280;21899;42.662;23.316;2023-04-19T02:39:14;93949.94;;;9.12;100.00
35778;BME280;21899;42.662;23.316;2023-04-19T02:41:40;93940.81;;;9.10;100.00
35778;BME280;21899;42.662;23.316;2023-04-19T02:44:06;93951.50;;;9.06;100.00
35778;BME280;21899;42.662;23.316;2023-04-19T02:46:31;93938.53;;;8.91;100.00
35778;BME280;21899;42.662;23.316;2023-04-19T02:48:59;93953.00;;;9.07;100.00
35778;BME280;21899;42.662;23.316;2023-04-19T02:51:25;93954.94;;;9.10;100.00
35778;BME280;21899;42.662;23.316;2023-04-19T02:53:51;93950.75;;;8.99;100.00
35778;BME280;21899;42.662;23.316;2023-04-19T02:56:17;93945.41;;;8.92;100.00
35778;BME280;21899;42.662;23.316;2023-04-19T02:58:42;93940.84;;;8.89;100.00
35778;BME280;21899;42.662;23.316;2023-04-19T03:01:08;93959.53;;;8.92;100.00
35778;BME280;21899;42.662;23.316;2023-04-19T03:03:33;93949.22;;;8.91;100.00
35778;BME280;21899;42.662;23.316;2023-04-19T03:05:59;93959.50;;;8.99;100.00
35778;BME280;21899;42.662;23.316;2023-04-19T03:08:24;93955.31;;;8.98;100.00
35778;BME280;21899;42.662;23.316;2023-04-19T03:10:49;93950.75;;;8.99;100.00
35778;BME280;21899;42.662;23.316;2023-04-19T03:13:15;93953.78;;;9.04;100.00
35778;BME280;21899;42.662;23.316;2023-04-19T03:15:40;93941.59;;;9.00;100.00
35778;BME280;21899;42.662;23.316;2023-04-19T03:18:05;93951.09;;;9.08;100.00
35778;BME280;21899;42.662;23.316;2023-04-19T03:20:31;93944.66;;;9.02;100.00
35778;BME280;21899;42.662;23.316;2023-04-19T03:22:56;93945.41;;;8.92;100.00
35778;BME280;21899;42.662;23.316;2023-04-19T03:25:22;93948.81;;;8.96;100.00
35778;BME280;21899;42.662;23.316;2023-04-19T03:27:47;93952.66;;;8.95;100.00
35778;BME280;21899;42.662;23.316;2023-04-19T03:30:13;93940.47;;;8.90;100.00
35778;BME280;21899;42.662;23.316;2023-04-19T03:32:39;93946.19;;;8.85;100.00
35778;BME280;21899;42.662;23.316;2023-04-19T03:35:05;93941.63;;;8.79;100.00
35778;BME280;21899;42.662;23.316;2023-04-19T03:37:30;93951.91;;;8.77;100.00
35778;BME280;21899;42.662;23.316;2023-04-19T03:39:56;93938.97;;;8.72;100.00
35778;BME280;21899;42.662;23.316;2023-04-19T03:42:21;93951.53;;;8.82;100.00
35778;BME280;21899;42.662;23.316;2023-04-19T03:44:46;93946.19;;;8.82;100.00
35778;BME280;21899;42.662;23.316;2023-04-19T03:47:12;93954.94;;;8.86;100.00
35778;BME280;21899;42.662;23.316;2023-04-19T03:49:37;93948.84;;;8.82;100.00
35778;BME280;21899;42.662;23.316;2023-04-19T03:52:03;93943.53;;;8.75;100.00
35778;BME280;21899;42.662;23.316;2023-04-19T03:54:28;93935.53;;;8.75;100.00
35778;BME280;21899;42.662;23.316;2023-04-19T03:56:54;93943.91;;;8.73;100.00
35778;BME280;21899;42.662;23.316;2023-04-19T03:59:19;93942.41;;;8.69;100.00
35778;BME280;21899;42.662;23.316;2023-04-19T04:01:44;93944.69;;;8.67;100.00
35778;BME280;21899;42.662;23.316;2023-04-19T04:04:10;93936.28;;;8.65;100.00
35778;BME280;21899;42.662;23.316;2023-04-19T04:06:38;93933.22;;;8.70;100.00
35778;BME280;21899;42.662;23.316;2023-04-19T04:09:04;93949.25;;;8.84;100.00
35778;BME280;21899;42.662;23.316;2023-04-19T04:11:29;93943.88;;;8.91;100.00
35778;BME280;21899;42.662;23.316;2023-04-19T04:13:55;93939.69;;;8.93;100.00
35778;BME280;21899;42.662;23.316;2023-04-19T04:16:21;93951.13;;;8.94;100.00
35778;BME280;21899;42.662;23.316;2023-04-19T04:18:46;93953.03;;;8.97;100.00
35778;BME280;21899;42.662;23.316;2023-04-19T04:21:12;93951.88;;;8.91;100.00
35778;BME280;21899;42.662;23.316;2023-04-19T04:23:37;93956.09;;;8.78;100.00
35778;BME280;21899;42.662;23.316;2023-04-19T04:26:02;93955.31;;;8.84;100.00
35778;BME280;21899;42.662;23.316;2023-04-19T04:28:30;93953.81;;;8.73;100.00
35778;BME280;21899;42.662;23.316;2023-04-19T04:30:56;93967.53;;;8.68;100.00
35778;BME280;21899;42.662;23.316;2023-04-19T04:33:26;93951.91;;;8.63;100.00
35778;BME280;21899;42.662;23.316;2023-04-19T04:35:52;93962.22;;;8.57;100.00
35778;BME280;21899;42.662;23.316;2023-04-19T04:38:18;93966.00;;;8.56;100.00
35778;BME280;21899;42.662;23.316;2023-04-19T04:40:51;93967.56;;;8.64;100.00
35778;BME280;21899;42.662;23.316;2023-04-19T04:43:24;93965.63;;;8.65;100.00
35778;BME280;21899;42.662;23.316;2023-04-19T04:45:50;93964.09;;;8.50;100.00
35778;BME280;21899;42.662;23.316;2023-04-19T04:48:15;93972.88;;;8.54;100.00
35778;BME280;21899;42.662;23.316;2023-04-19T04:50:41;93967.53;;;8.54;100.00
35778;BME280;21899;42.662;23.316;2023-04-19T04:53:06;93970.22;;;8.57;100.00
35778;BME280;21899;42.662;23.316;2023-04-19T04:55:33;93964.13;;;8.57;100.00
35778;BME280;21899;42.662;23.316;2023-04-19T04:57:58;93974.41;;;8.62;100.00
35778;BME280;21899;42.662;23.316;2023-04-19T05:00:24;93956.13;;;8.64;100.00
35778;BME280;21899;42.662;23.316;2023-04-19T05:02:49;93966.78;;;8.71;100.00
35778;BME280;21899;42.662;23.316;2023-04-19T05:05:15;93960.28;;;8.68;100.00
35778;BME280;21899;42.662;23.316;2023-04-19T05:07:40;93956.47;;;8.69;100.00
35778;BME280;21899;42.662;23.316;2023-04-19T05:10:06;93970.59;;;8.77;100.00
35778;BME280;21899;42.662;23.316;2023-04-19T05:12:32;93978.97;;;8.79;100.00
35778;BME280;21899;42.662;23.316;2023-04-19T05:14:58;93969.06;;;8.69;100.00
35778;BME280;21899;42.662;23.316;2023-04-19T05:17:23;93966.03;;;8.70;100.00
35778;BME280;21899;42.662;23.316;2023-04-19T05:19:49;93978.97;;;8.79;100.00
35778;BME280;21899;42.662;23.316;2023-04-19T05:22:15;93988.13;;;8.95;100.00
35778;BME280;21899;42.662;23.316;2023-04-19T05:24:40;93974.38;;;9.04;100.00
35778;BME280;21899;42.662;23.316;2023-04-19T05:27:06;93977.03;;;9.21;100.00
35778;BME280;21899;42.662;23.316;2023-04-19T05:29:31;93980.47;;;9.22;100.00
35778;BME280;21899;42.662;23.316;2023-04-19T05:31:57;93977.03;;;9.25;100.00
35778;BME280;21899;42.662;23.316;2023-04-19T05:34:23;93977.41;;;9.27;100.00
35778;BME280;21899;42.662;23.316;2023-04-19T05:36:48;93982.69;;;9.41;100.00
35778;BME280;21899;42.662;23.316;2023-04-19T05:39:14;93980.41;;;9.43;100.00
35778;BME280;21899;42.662;23.316;2023-04-19T05:41:39;93985.69;;;9.57;100.00
35778;BME280;21899;42.662;23.316;2023-04-19T05:44:05;93976.16;;;9.56;100.00
35778;BME280;21899;42.662;23.316;2023-04-19T05:46:31;93974.34;;;9.29;100.00
35778;BME280;21899;42.662;23.316;2023-04-19T05:48:56;93981.59;;;9.24;100.00
35778;BME280;21899;42.662;23.316;2023-04-19T05:51:21;93971.69;;;9.07;100.00
35778;BME280;21899;42.662;23.316;2023-04-19T05:53:47;93977.41;;;9.13;100.00
35778;BME280;21899;42.662;23.316;2023-04-19T05:56:12;93981.97;;;9.30;100.00
35778;BME280;21899;42.662;23.316;2023-04-19T05:58:38;93985.38;;;9.41;100.00
35778;BME280;21899;42.662;23.316;2023-04-19T06:01:03;93976.22;;;9.39;100.00
35778;BME280;21899;42.662;23.316;2023-04-19T06:03:29;93990.31;;;9.39;100.00
35778;BME280;21899;42.662;23.316;2023-04-19T06:05:54;93996.03;;;9.48;100.00
35778;BME280;21899;42.662;23.316;2023-04-19T06:08:19;93982.69;;;9.34;100.00
35778;BME280;21899;42.662;23.316;2023-04-19T06:10:45;93991.09;;;9.43;100.00
35778;BME280;21899;42.662;23.316;2023-04-19T06:13:14;93992.56;;;9.58;100.00
35778;BME280;21899;42.662;23.316;2023-04-19T06:15:40;93984.47;;;9.76;100.00
35778;BME280;21899;42.662;23.316;2023-04-19T06:18:05;94000.03;;;10.02;100.00
35778;BME280;21899;42.662;23.316;2023-04-19T06:20:37;93990.09;;;10.02;100.00
35778;BME280;21899;42.662;23.316;2023-04-19T06:23:03;93976.31;;;10.14;100.00
35778;BME280;21899;42.662;23.316;2023-04-19T06:25:29;93975.16;;;10.15;100.00
35778;BME280;21899;42.662;23.316;2023-04-19T06:27:54;93992.25;;;10.35;100.00
35778;BME280;21899;42.662;23.316;2023-04-19T06:30:19;93986.78;;;10.49;100.00
35778;BME280;21899;42.662;23.316;2023-04-19T06:32:45;93995.31;;;10.89;99.57
35778;BME280;21899;42.662;23.316;2023-04-19T06:35:10;93994.69;;;11.15;96.22
35778;BME280;21899;42.662;23.316;2023-04-19T06:37:36;93993.88;;;11.21;94.49
35778;BME280;21899;42.662;23.316;2023-04-19T06:40:02;93989.25;;;11.25;94.13
35778;BME280;21899;42.662;23.316;2023-04-19T06:42:29;94004.34;;;11.46;93.32
35778;BME280;21899;42.662;23.316;2023-04-19T06:44:55;94001.47;;;11.67;91.46
35778;BME280;21899;42.662;23.316;2023-04-19T06:47:21;94001.13;;;11.65;91.14
35778;BME280;21899;42.662;23.316;2023-04-19T06:49:47;93996.59;;;11.92;90.56
35778;BME280;21899;42.662;23.316;2023-04-19T06:52:12;93996.22;;;11.90;88.44
35778;BME280;21899;42.662;23.316;2023-04-19T06:54:37;94006.25;;;11.86;88.17
35778;BME280;21899;42.662;23.316;2023-04-19T06:57:03;94003.06;;;11.98;88.71
35778;BME280;21899;42.662;23.316;2023-04-19T06:59:28;94009.47;;;12.04;88.15
35778;BME280;21899;42.662;23.316;2023-04-19T07:01:56;94009.19;;;11.95;87.53
35778;BME280;21899;42.662;23.316;2023-04-19T07:04:22;94011.34;;;12.07;86.75
35778;BME280;21899;42.662;23.316;2023-04-19T07:06:48;94011.19;;;12.21;86.16
35778;BME280;21899;42.662;23.316;2023-04-19T07:09:14;94006.22;;;12.46;85.20
35778;BME280;21899;42.662;23.316;2023-04-19T07:11:39;94002.97;;;12.62;83.26
35778;BME280;21899;42.662;23.316;2023-04-19T07:14:05;93995.69;;;12.85;82.96
35778;BME280;21899;42.662;23.316;2023-04-19T07:16:31;93996.56;;;13.05;81.90
35778;BME280;21899;42.662;23.316;2023-04-19T07:18:56;94001.81;;;13.13;80.43
35778;BME280;21899;42.662;23.316;2023-04-19T07:21:22;94008.34;;;13.12;79.78
35778;BME280;21899;42.662;23.316;2023-04-19T07:23:50;93998.44;;;13.08;79.81
35778;BME280;21899;42.662;23.316;2023-04-19T07:26:16;94006.34;;;13.16;80.22
35778;BME280;21899;42.662;23.316;2023-04-19T07:28:41;94020.28;;;13.11;80.38
35778;BME280;21899;42.662;23.316;2023-04-19T07:31:07;94024.72;;;12.71;81.29
35778;BME280;21899;42.662;23.316;2023-04-19T07:33:33;94011.47;;;12.57;82.04
35778;BME280;21899;42.662;23.316;2023-04-19T07:35:58;94002.03;;;12.45;83.39
35778;BME280;21899;42.662;23.316;2023-04-19T07:38:23;94017.88;;;12.63;83.36
35778;BME280;21899;42.662;23.316;2023-04-19T07:40:49;94016.78;;;12.60;83.03
35778;BME280;21899;42.662;23.316;2023-04-19T07:43:15;94014.56;;;12.55;83.66
35778;BME280;21899;42.662;23.316;2023-04-19T07:45:41;94010.47;;;12.47;83.29
35778;BME280;21899;42.662;23.316;2023-04-19T07:48:06;94006.19;;;12.20;84.59
35778;BME280;21899;42.662;23.316;2023-04-19T07:50:32;94013.31;;;12.33;84.81
35778;BME280;21899;42.662;23.316;2023-04-19T07:52:57;94020.41;;;12.47;84.11
35778;BME280;21899;42.662;23.316;2023-04-19T07:55:23;94012.34;;;12.20;84.58
35778;BME280;21899;42.662;23.316;2023-04-19T07:57:48;94022.78;;;12.15;85.85
35778;BME280;21899;42.662;23.316;2023-04-19T08:00:15;94012.41;;;12.13;85.83
35778;BME280;21899;42.662;23.316;2023-04-19T08:02:44;94010.91;;;11.78;87.00
35778;BME280;21899;42.662;23.316;2023-04-19T08:05:10;94017.44;;;11.77;88.34
35778;BME280;21899;42.662;23.316;2023-04-19T08:07:36;94017.56;;;11.67;89.29
35778;BME280;21899;42.662;23.316;2023-04-19T08:10:02;94017.34;;;11.88;88.72
35778;BME280;21899;42.662;23.316;2023-04-19T08:12:28;94006.81;;;12.04;86.57
35778;BME280;21899;42.662;23.316;2023-04-19T08:14:53;94002.47;;;11.80;87.01
35778;BME280;21899;42.662;23.316;2023-04-19T08:17:19;94018.47;;;11.87;87.38
35778;BME280;21899;42.662;23.316;2023-04-19T08:19:46;94012.97;;;12.01;86.88
35778;BME280;21899;42.662;23.316;2023-04-19T08:22:14;94006.34;;;12.09;86.11
35778;BME280;21899;42.662;23.316;2023-04-19T08:24:40;94018.22;;;12.08;86.18
35778;BME280;21899;42.662;23.316;2023-04-19T08:27:05;94016.72;;;12.07;86.56
35778;BME280;21899;42.662;23.316;2023-04-19T08:29:32;94012.97;;;12.01;86.72
35778;BME280;21899;42.662;23.316;2023-04-19T08:31:57;94016.38;;;12.02;86.71
35778;BME280;21899;42.662;23.316;2023-04-19T08:34:23;94006.34;;;12.09;86.79
35778;BME280;21899;42.662;23.316;2023-04-19T08:36:48;94007.06;;;12.13;85.51
35778;BME280;21899;42.662;23.316;2023-04-19T08:39:14;93998.38;;;12.32;85.66
35778;BME280;21899;42.662;23.316;2023-04-19T08:41:40;94000.91;;;12.69;83.61
35778;BME280;21899;42.662;23.316;2023-04-19T08:44:06;93988.75;;;12.88;81.73
35778;BME280;21899;42.662;23.316;2023-04-19T08:46:31;93995.09;;;13.24;79.80
35778;BME280;21899;42.662;23.316;2023-04-19T08:48:58;93990.47;;;13.25;78.59
35778;BME280;21899;42.662;23.316;2023-04-19T08:51:24;93990.94;;;13.43;77.79
35778;BME280;21899;42.662;23.316;2023-04-19T08:53:51;93999.72;;;13.66;76.58
35778;BME280;21899;42.662;23.316;2023-04-19T08:56:17;93989.81;;;13.83;76.70
35778;BME280;21899;42.662;23.316;2023-04-19T08:58:43;93991.44;;;13.57;75.62
35778;BME280;21899;42.662;23.316;2023-04-19T09:01:09;93993.63;;;13.43;77.34
35778;BME280;21899;42.662;23.316;2023-04-19T09:03:42;93994.50;;;13.36;77.17
35778;BME280;21899;42.662;23.316;2023-04-19T09:06:07;93983.72;;;13.17;77.67
35778;BME280;21899;42.662;23.316;2023-04-19T09:08:32;93989.09;;;13.17;78.12
35778;BME280;21899;42.662;23.316;2023-04-19T09:11:00;93985.50;;;13.46;76.67
35778;BME280;21899;42.662;23.316;2023-04-19T09:13:27;93981.09;;;13.56;75.45
35778;BME280;21899;42.662;23.316;2023-04-19T09:15:54;93975.44;;;13.50;73.42
35778;BME280;21899;42.662;23.316;2023-04-19T09:18:22;93983.47;;;13.73;72.30
35778;BME280;21899;42.662;23.316;2023-04-19T09:20:49;93985.03;;;13.51;73.78
35778;BME280;21899;42.662;23.316;2023-04-19T09:23:17;93974.50;;;13.37;75.05
35778;BME280;21899;42.662;23.316;2023-04-19T09:25:56;93976.50;;;13.33;76.18
35778;BME280;21899;42.662;23.316;2023-04-19T09:28:24;93971.81;;;13.37;76.91
35778;BME280;21899;42.662;23.316;2023-04-19T09:30:50;93972.19;;;13.59;74.57
35778;BME280;21899;42.662;23.316;2023-04-19T09:33:31;93979.16;;;13.37;75.96
35778;BME280;21899;42.662;23.316;2023-04-19T09:35:58;93972.84;;;13.66;76.04
35778;BME280;21899;42.662;23.316;2023-04-19T09:38:23;93968.06;;;13.74;75.04
35778;BME280;21899;42.662;23.316;2023-04-19T09:40:49;93966.56;;;13.92;74.51
35778;BME280;21899;42.662;23.316;2023-04-19T09:43:24;93970.75;;;14.13;72.94
35778;BME280;21899;42.662;23.316;2023-04-19T09:45:52;93976.47;;;14.15;71.96
35778;BME280;21899;42.662;23.316;2023-04-19T09:48:17;93963.09;;;13.92;71.10
35778;BME280;21899;42.662;23.316;2023-04-19T09:50:58;93967.38;;;13.50;72.17
35778;BME280;21899;42.662;23.316;2023-04-19T09:53:24;93963.59;;;13.25;74.07
35778;BME280;21899;42.662;23.316;2023-04-19T09:55:50;93961.47;;;13.36;75.01
35778;BME280;21899;42.662;23.316;2023-04-19T09:58:17;93948.63;;;13.66;73.37
35778;BME280;21899;42.662;23.316;2023-04-19T10:00:43;93956.00;;;13.82;71.38
35778;BME280;21899;42.662;23.316;2023-04-19T10:03:11;93952.16;;;13.83;70.37
35778;BME280;21899;42.662;23.316;2023-04-19T10:05:38;93950.28;;;13.80;69.78
35778;BME280;21899;42.662;23.316;2023-04-19T10:08:08;93953.31;;;13.82;71.16
35778;BME280;21899;42.662;23.316;2023-04-19T10:10:35;93953.31;;;13.82;70.85
35778;BME280;21899;42.662;23.316;2023-04-19T10:13:06;93945.31;;;13.59;71.66
35778;BME280;21899;42.662;23.316;2023-04-19T10:15:34;93944.28;;;13.53;71.79
35778;BME280;21899;42.662;23.316;2023-04-19T10:18:01;93942.41;;;13.50;72.14
35778;BME280;21899;42.662;23.316;2023-04-19T10:20:32;93948.97;;;13.68;72.71
35778;BME280;21899;42.662;23.316;2023-04-19T10:23:00;93935.78;;;13.74;73.49
35778;BME280;21899;42.662;23.316;2023-04-19T10:25:29;93933.56;;;13.88;73.03
35778;BME280;21899;42.662;23.316;2023-04-19T10:27:55;93930.78;;;14.11;69.70
35778;BME280;21899;42.662;23.316;2023-04-19T10:30:21;93937.56;;;14.00;70.50
35778;BME280;21899;42.662;23.316;2023-04-19T10:32:52;93928.50;;;13.74;71.71
35778;BME280;21899;42.662;23.316;2023-04-19T10:35:25;93932.75;;;13.72;73.05
35778;BME280;21899;42.662;23.316;2023-04-19T10:38:11;93929.97;;;13.95;71.85
35778;BME280;21899;42.662;23.316;2023-04-19T10:41:02;93924.31;;;14.09;70.74
35778;BME280;21899;42.662;23.316;2023-04-19T10:43:32;93925.38;;;13.95;69.51
35778;BME280;21899;42.662;23.316;2023-04-19T10:46:35;93917.50;;;14.04;68.70
35778;BME280;21899;42.662;23.316;2023-04-19T10:48:58;93913.56;;;14.09;68.54
35778;BME280;21899;42.662;23.316;2023-04-19T10:54:26;93910.84;;;14.09;69.07
35778;BME280;21899;42.662;23.316;2023-04-19T10:56:58;93907.09;;;14.06;68.67
35778;BME280;21899;42.662;23.316;2023-04-19T10:59:25;93911.13;;;14.14;68.97
35778;BME280;21899;42.662;23.316;2023-04-19T11:01:53;93904.50;;;14.19;68.75
35778;BME280;21899;42.662;23.316;2023-04-19T11:09:36;93897.25;;;14.16;65.30
35778;BME280;21899;42.662;23.316;2023-04-19T11:12:04;93906.00;;;14.20;66.22
35778;BME280;21899;42.662;23.316;2023-04-19T11:14:36;93900.50;;;14.43;64.81
35778;BME280;21899;42.662;23.316;2023-04-19T11:17:13;93903.31;;;14.56;63.67
35778;BME280;21899;42.662;23.316;2023-04-19T11:20:01;93902.22;;;14.69;61.88
35778;BME280;21899;42.662;23.316;2023-04-19T11:23:07;93891.94;;;14.80;61.92
35778;BME280;21899;42.662;23.316;2023-04-19T11:25:25;93896.56;;;14.80;58.43
35778;BME280;21899;42.662;23.316;2023-04-19T11:27:52;93896.91;;;14.66;59.82
35778;BME280;21899;42.662;23.316;2023-04-19T11:30:19;93899.84;;;14.39;59.29
35778;BME280;21899;42.662;23.316;2023-04-19T11:32:53;93900.56;;;14.39;60.43
35778;BME280;21899;42.662;23.316;2023-04-19T11:35:24;93896.16;;;14.49;59.81
35778;BME280;21899;42.662;23.316;2023-04-19T11:37:50;93888.91;;;14.62;59.29
35778;BME280;21899;42.662;23.316;2023-04-19T11:40:17;93886.72;;;14.57;59.04
35778;BME280;21899;42.662;23.316;2023-04-19T11:42:43;93890.00;;;14.49;58.29
35778;BME280;21899;42.662;23.316;2023-04-19T11:45:10;93909.78;;;14.42;59.18
35778;BME280;21899;42.662;23.316;2023-04-19T11:47:49;93889.91;;;14.16;56.44
35778;BME280;21899;42.662;23.316;2023-04-19T11:50:35;93895.56;;;14.22;56.57
35778;BME280;21899;42.662;23.316;2023-04-19T11:53:22;93881.56;;;14.30;55.41
35778;BME280;21899;42.662;23.316;2023-04-19T11:56:05;93883.00;;;14.35;55.81
35778;BME280;21899;42.662;23.316;2023-04-19T11:58:44;93886.22;;;14.62;56.09
35778;BME280;21899;42.662;23.316;2023-04-19T12:03:40;93881.97;;;14.93;51.67
35778;BME280;21899;42.662;23.316;2023-04-19T12:06:10;93867.31;;;15.10;53.52
35778;BME280;21899;42.662;23.316;2023-04-19T12:08:38;93875.34;;;15.26;53.45
35778;BME280;21899;42.662;23.316;2023-04-19T12:11:05;93882.06;;;15.34;51.43
35778;BME280;21899;42.662;23.316;2023-04-19T12:13:31;93868.53;;;15.22;53.00
35778;BME280;21899;42.662;23.316;2023-04-19T12:15:58;93866.16;;;15.24;52.82
35778;BME280;21899;42.662;23.316;2023-04-19T12:18:24;93865.53;;;15.48;49.97
35778;BME280;21899;42.662;23.316;2023-04-19T12:20:51;93872.25;;;15.56;47.61
35778;BME280;21899;42.662;23.316;2023-04-19T12:23:18;93866.94;;;15.53;48.50
35778;BME280;21899;42.662;23.316;2023-04-19T12:25:45;93855.59;;;15.45;49.48
35778;BME280;21899;42.662;23.316;2023-04-19T12:28:11;93876.53;;;15.54;48.14
35778;BME280;21899;42.662;23.316;2023-04-19T12:30:38;93874.91;;;15.44;47.67
35778;BME280;21899;42.662;23.316;2023-04-19T12:33:04;93869.06;;;15.45;47.05
35778;BME280;21899;42.662;23.316;2023-04-19T12:35:30;93865.22;;;15.46;47.38
35778;BME280;21899;42.662;23.316;2023-04-19T12:37:57;93848.94;;;15.62;47.73
35778;BME280;21899;42.662;23.316;2023-04-19T12:40:23;93859.25;;;15.93;47.56
35778;BME280;21899;42.662;23.316;2023-04-19T12:42:49;93846.00;;;16.11;47.65
35778;BME280;21899;42.662;23.316;2023-04-19T12:45:16;93859.16;;;16.34;48.11
35778;BME280;21899;42.662;23.316;2023-04-19T12:47:42;93855.50;;;16.65;48.38
35778;BME280;21899;42.662;23.316;2023-04-19T12:50:08;93859.66;;;16.91;47.42
35778;BME280;21899;42.662;23.316;2023-04-19T12:52:34;93862.50;;;16.75;47.79
35778;BME280;21899;42.662;23.316;2023-04-19T12:55:00;93860.56;;;16.01;48.69
35778;BME280;21899;42.662;23.316;2023-04-19T12:57:26;93864.84;;;15.86;49.42
35778;BME280;21899;42.662;23.316;2023-04-19T12:59:51;93866.19;;;16.06;50.59